createdAt,value
2022-08-11T00:01:12.563Z,22.20
2022-08-11T00:03:46.875Z,22.10
2022-08-11T00:06:16.536Z,22.10
2022-08-11T00:08:51.407Z,22.10
2022-08-11T00:11:21.041Z,22.10
2022-08-11T00:13:50.920Z,22.00
2022-08-11T00:16:22.708Z,22.00
2022-08-11T00:18:53.538Z,21.90
2022-08-11T00:21:54.647Z,21.90
2022-08-11T00:24:12.669Z,21.80
2022-08-11T00:26:40.847Z,21.80
2022-08-11T00:29:12.956Z,21.80
2022-08-11T00:31:48.731Z,21.80
2022-08-11T00:34:19.703Z,21.70
2022-08-11T00:36:52.577Z,21.70
2022-08-11T00:39:29.045Z,21.70
2022-08-11T00:42:15.771Z,21.70
2022-08-11T00:44:56.402Z,21.70
2022-08-11T00:47:36.438Z,21.70
2022-08-11T00:50:12.564Z,21.60
2022-08-11T00:53:01.968Z,21.60
2022-08-11T00:56:27.204Z,21.60
2022-08-11T00:59:37.351Z,21.60
2022-08-11T01:02:21.108Z,21.60
2022-08-11T01:05:21.812Z,21.50
2022-08-11T01:08:23.029Z,21.50
2022-08-11T01:11:21.584Z,21.50
2022-08-11T01:14:19.281Z,21.50
2022-08-11T01:17:30.226Z,21.40
2022-08-11T01:20:46.457Z,21.30
2022-08-11T01:23:32.416Z,21.30
2022-08-11T01:26:40.625Z,21.30
2022-08-11T01:29:39.579Z,21.20
2022-08-11T01:32:50.117Z,21.20
2022-08-11T01:35:41.873Z,21.20
2022-08-11T01:38:45.531Z,21.10
2022-08-11T01:41:48.286Z,21.10
2022-08-11T01:44:44.091Z,21.10
2022-08-11T01:47:52.511Z,21.10
2022-08-11T01:50:57.408Z,21.00
2022-08-11T01:53:35.693Z,21.00
2022-08-11T01:56:21.563Z,21.00
2022-08-11T01:59:01.077Z,21.00
2022-08-11T02:01:45.196Z,21.00
2022-08-11T02:04:26.444Z,20.90
2022-08-11T02:07:02.661Z,20.90
2022-08-11T02:09:57.476Z,20.90
2022-08-11T02:12:47.658Z,20.90
2022-08-11T02:15:27.817Z,20.90
2022-08-11T02:18:05.905Z,20.90
2022-08-11T02:21:02.362Z,20.80
2022-08-11T02:24:04.833Z,20.90
2022-08-11T02:26:41.253Z,20.90
2022-08-11T02:29:17.716Z,20.80
2022-08-11T02:32:29.592Z,20.90
2022-08-11T02:35:06.047Z,20.80
2022-08-11T02:38:05.396Z,20.80
2022-08-11T02:40:44.049Z,20.70
2022-08-11T02:43:29.323Z,20.70
2022-08-11T02:46:07.921Z,20.70
2022-08-11T02:49:14.507Z,20.70
2022-08-11T02:51:56.777Z,20.70
2022-08-11T02:54:31.846Z,20.70
2022-08-11T02:57:05.327Z,20.60
2022-08-11T02:59:53.775Z,20.70
2022-08-11T03:02:45.954Z,20.60
2022-08-11T03:05:25.129Z,20.60
2022-08-11T03:08:06.829Z,20.60
2022-08-11T03:11:07.653Z,20.60
2022-08-11T03:13:59.149Z,20.60
2022-08-11T03:16:48.424Z,20.50
2022-08-11T03:19:26.555Z,20.50
2022-08-11T03:22:06.342Z,20.50
2022-08-11T03:24:49.600Z,20.50
2022-08-11T03:27:31.678Z,20.50
2022-08-11T03:30:12.744Z,20.40
2022-08-11T03:33:07.172Z,20.50
2022-08-11T03:35:44.208Z,20.50
2022-08-11T03:38:16.187Z,20.50
2022-08-11T03:42:03.144Z,20.40
2022-08-11T03:44:24.517Z,20.40
2022-08-11T03:47:19.312Z,20.40
2022-08-11T03:50:06.469Z,20.40
2022-08-11T03:52:52.645Z,20.40
2022-08-11T03:55:34.797Z,20.40
2022-08-11T03:58:39.668Z,20.40
2022-08-11T04:01:39.530Z,20.40
2022-08-11T04:04:37.791Z,20.40
2022-08-11T04:07:57.775Z,20.40
2022-08-11T04:11:02.486Z,20.30
2022-08-11T04:14:22.490Z,20.30
2022-08-11T04:17:08.809Z,20.30
2022-08-11T04:20:18.397Z,20.30
2022-08-11T04:24:36.254Z,20.30
2022-08-11T04:26:38.982Z,20.30
2022-08-11T04:29:36.372Z,20.30
2022-08-11T04:32:35.421Z,20.30
2022-08-11T04:35:25.701Z,20.30
2022-08-11T04:38:32.591Z,20.30
2022-08-11T04:42:01.256Z,20.40
2022-08-11T04:44:58.654Z,20.40
2022-08-11T04:48:05.049Z,20.40
2022-08-11T04:51:09.153Z,20.40
2022-08-11T04:54:15.172Z,20.40
2022-08-11T04:57:02.378Z,20.40
2022-08-11T05:00:19.351Z,20.40
2022-08-11T05:03:18.054Z,20.50
2022-08-11T05:06:25.342Z,20.50
2022-08-11T05:09:27.054Z,20.60
2022-08-11T05:12:21.427Z,20.60
2022-08-11T05:15:11.579Z,20.70
2022-08-11T05:18:00.779Z,20.80
2022-08-11T05:20:49.460Z,20.80
2022-08-11T05:23:39.454Z,20.80
2022-08-11T05:26:46.523Z,20.90
2022-08-11T05:29:58.850Z,21.00
2022-08-11T05:32:55.925Z,21.00
2022-08-11T05:36:00.846Z,21.10
2022-08-11T05:38:42.878Z,21.20
2022-08-11T05:41:30.934Z,21.20
2022-08-11T05:44:20.447Z,21.30
2022-08-11T05:47:08.626Z,21.40
2022-08-11T05:49:57.865Z,21.40
2022-08-11T05:52:47.200Z,21.50
2022-08-11T05:55:35.647Z,21.60
2022-08-11T05:58:23.907Z,21.70
2022-08-11T06:00:52.373Z,21.80
2022-08-11T06:03:27.961Z,21.90
2022-08-11T06:05:59.285Z,22.00
2022-08-11T06:08:32.129Z,22.10
2022-08-11T06:11:05.152Z,22.20
2022-08-11T06:13:35.455Z,22.30
2022-08-11T06:16:07.035Z,22.30
2022-08-11T06:18:36.652Z,22.40
2022-08-11T06:21:12.330Z,22.50
2022-08-11T06:23:42.641Z,22.50
2022-08-11T06:26:11.955Z,22.60
2022-08-11T06:28:42.217Z,22.70
2022-08-11T06:31:14.605Z,22.80
2022-08-11T06:33:55.295Z,22.90
2022-08-11T06:36:31.822Z,23.10
2022-08-11T06:39:08.650Z,23.20
2022-08-11T06:41:46.362Z,23.20
2022-08-11T06:44:24.543Z,23.30
2022-08-11T06:46:56.054Z,23.30
2022-08-11T06:49:51.813Z,23.40
2022-08-11T06:52:35.014Z,23.40
2022-08-11T06:55:54.851Z,23.40
2022-08-11T06:58:14.737Z,23.40
2022-08-11T07:00:43.454Z,23.40
2022-08-11T07:03:14.538Z,23.50
2022-08-11T07:05:48.590Z,23.50
2022-08-11T07:08:59.785Z,23.60
2022-08-11T07:12:27.222Z,23.70
2022-08-11T07:15:15.579Z,23.60
2022-08-11T07:17:50.095Z,23.80
2022-08-11T07:20:48.512Z,23.90
2022-08-11T07:23:36.939Z,24.00
2022-08-11T07:26:23.060Z,24.00
2022-08-11T07:28:59.016Z,24.10
2022-08-11T07:31:33.425Z,24.20
2022-08-11T07:34:17.891Z,24.20
2022-08-11T07:36:52.150Z,24.30
2022-08-11T07:39:24.129Z,24.30
2022-08-11T07:41:54.672Z,24.50
2022-08-11T07:44:29.500Z,24.50
2022-08-11T07:47:19.574Z,24.60
2022-08-11T07:50:09.593Z,24.60
2022-08-11T07:52:40.537Z,24.70
2022-08-11T07:55:15.554Z,24.60
2022-08-11T07:58:16.273Z,24.70
2022-08-11T08:01:10.648Z,24.90
2022-08-11T08:04:08.259Z,25.00
2022-08-11T08:06:55.406Z,25.20
2022-08-11T08:09:43.362Z,25.30
2022-08-11T08:12:32.224Z,25.40
2022-08-11T08:15:17.989Z,25.50
2022-08-11T08:18:09.839Z,25.60
2022-08-11T08:20:50.116Z,25.60
2022-08-11T08:23:33.328Z,25.60
2022-08-11T08:26:04.577Z,25.70
2022-08-11T08:28:35.214Z,25.70
2022-08-11T08:31:03.437Z,25.80
2022-08-11T08:33:33.149Z,25.90
2022-08-11T08:36:12.820Z,26.00
2022-08-11T08:38:42.478Z,26.00
2022-08-11T08:41:13.228Z,26.20
2022-08-11T08:43:49.886Z,26.30
2022-08-11T08:46:20.722Z,26.40
2022-08-11T08:48:50.258Z,26.50
2022-08-11T08:52:01.043Z,26.60
2022-08-11T08:54:31.433Z,26.80
2022-08-11T08:57:04.988Z,27.00
2022-08-11T08:59:48.895Z,27.10
2022-08-11T09:02:33.612Z,27.00
2022-08-11T09:05:03.993Z,27.20
2022-08-11T09:07:39.540Z,26.90
2022-08-11T09:10:10.068Z,26.80
2022-08-11T09:12:41.414Z,26.70
2022-08-11T09:15:14.128Z,26.60
2022-08-11T09:17:46.073Z,26.80
2022-08-11T09:20:18.370Z,27.00
2022-08-11T09:26:14.835Z,27.30
2022-08-11T09:28:45.293Z,27.60
2022-08-11T09:31:16.181Z,27.60
2022-08-11T09:33:45.698Z,27.90
2022-08-11T09:36:32.234Z,28.00
2022-08-11T09:39:21.795Z,28.00
2022-08-11T09:42:01.250Z,27.90
2022-08-11T09:44:48.942Z,28.10
2022-08-11T09:47:24.386Z,28.20
2022-08-11T09:50:00.135Z,28.10
2022-08-11T09:52:31.813Z,28.30
2022-08-11T09:55:00.888Z,28.50
2022-08-11T09:57:46.652Z,28.60
2022-08-11T10:00:16.177Z,28.70
2022-08-11T10:02:48.341Z,28.60
2022-08-11T10:05:36.930Z,28.70
2022-08-11T10:08:07.102Z,28.90
2022-08-11T10:10:38.634Z,29.10
2022-08-11T10:14:10.086Z,29.00
2022-08-11T10:16:15.675Z,28.90
2022-08-11T10:18:52.831Z,28.80
2022-08-11T10:21:29.157Z,28.90
2022-08-11T10:24:17.292Z,28.90
2022-08-11T10:26:54.479Z,28.40
2022-08-11T10:29:45.283Z,28.20
2022-08-11T10:32:57.267Z,28.30
2022-08-11T10:35:29.799Z,28.60
2022-08-11T10:38:06.315Z,28.90
2022-08-11T10:40:40.103Z,29.10
2022-08-11T10:43:13.811Z,29.10
2022-08-11T10:46:06.339Z,29.40
2022-08-11T10:48:39.030Z,29.60
2022-08-11T10:51:15.585Z,29.60
2022-08-11T10:54:21.440Z,29.60
2022-08-11T10:57:07.400Z,29.70
2022-08-11T10:59:35.951Z,29.90
2022-08-11T11:02:15.491Z,30.00
2022-08-11T11:04:59.256Z,30.00
2022-08-11T11:07:43.947Z,30.20
2022-08-11T11:10:13.024Z,30.50
2022-08-11T11:13:02.835Z,29.90
2022-08-11T11:15:51.971Z,29.50
2022-08-11T11:18:23.773Z,29.60
2022-08-11T11:20:58.478Z,30.20
2022-08-11T11:23:29.973Z,30.50
2022-08-11T11:26:32.284Z,30.30
2022-08-11T11:29:30.961Z,30.40
2022-08-11T11:32:15.794Z,30.60
2022-08-11T11:35:04.081Z,30.00
2022-08-11T11:37:35.594Z,29.80
2022-08-11T11:40:10.376Z,29.90
2022-08-11T11:42:39.194Z,30.10
2022-08-11T11:45:09.604Z,30.60
2022-08-11T11:47:52.534Z,31.10
2022-08-11T11:50:31.392Z,31.70
2022-08-11T11:53:02.840Z,32.30
2022-08-11T11:55:32.030Z,32.50
2022-08-11T11:58:19.882Z,32.00
2022-08-11T12:01:09.356Z,31.70
2022-08-11T12:03:38.540Z,31.80
2022-08-11T12:06:09.286Z,31.70
2022-08-11T12:08:38.864Z,32.10
2022-08-11T12:11:28.326Z,32.10
2022-08-11T12:14:01.727Z,32.10
2022-08-11T12:16:34.410Z,32.10
2022-08-11T12:19:07.323Z,31.90
2022-08-11T12:21:37.714Z,31.60
2022-08-11T12:24:29.126Z,31.40
2022-08-11T12:27:17.788Z,31.60
2022-08-11T12:29:54.362Z,32.20
2022-08-11T12:32:25.609Z,32.20
2022-08-11T12:34:57.953Z,31.30
2022-08-11T12:37:32.191Z,31.30
2022-08-11T12:40:42.471Z,31.70
2022-08-11T12:43:38.801Z,31.90
2022-08-11T12:46:10.175Z,31.60
2022-08-11T12:49:03.575Z,31.60
2022-08-11T12:52:12.172Z,31.30
2022-08-11T12:54:51.728Z,31.50
2022-08-11T12:57:43.873Z,31.90
2022-08-11T13:00:30.656Z,32.00
2022-08-11T13:03:16.680Z,32.30
2022-08-11T13:05:46.992Z,32.90
2022-08-11T13:08:15.838Z,32.90
2022-08-11T13:11:04.416Z,31.90
2022-08-11T13:13:54.377Z,31.80
2022-08-11T13:16:24.716Z,32.30
2022-08-11T13:18:53.978Z,33.10
2022-08-11T13:21:23.986Z,33.00
2022-08-11T13:23:59.881Z,32.80
2022-08-11T13:26:39.234Z,32.70
2022-08-11T13:29:18.677Z,32.50
2022-08-11T13:31:47.469Z,31.90
2022-08-11T13:34:17.414Z,32.30
2022-08-11T13:36:46.725Z,32.80
2022-08-11T13:39:15.472Z,32.90
2022-08-11T13:41:47.981Z,32.80
2022-08-11T13:44:24.669Z,32.90
2022-08-11T13:46:56.451Z,32.90
2022-08-11T13:49:25.587Z,33.50
2022-08-11T13:51:55.453Z,34.10
2022-08-11T13:54:27.348Z,34.10
2022-08-11T13:57:01.061Z,34.20
2022-08-11T13:59:31.429Z,34.20
2022-08-11T14:02:21.777Z,34.30
2022-08-11T14:04:56.108Z,34.10
2022-08-11T14:07:28.338Z,33.50
2022-08-11T14:10:00.405Z,33.70
2022-08-11T14:12:50.543Z,33.80
2022-08-11T14:15:21.469Z,34.00
2022-08-11T14:17:55.920Z,33.80
2022-08-11T14:20:38.352Z,33.80
2022-08-11T14:23:10.933Z,33.80
2022-08-11T14:26:02.681Z,34.10
2022-08-11T14:28:40.303Z,34.10
2022-08-11T14:31:13.110Z,34.30
2022-08-11T14:34:00.322Z,34.70
2022-08-11T14:36:33.169Z,34.40
2022-08-11T14:39:04.867Z,34.60
2022-08-11T14:42:11.437Z,34.60
2022-08-11T14:45:00.539Z,34.40
2022-08-11T14:47:30.951Z,34.00
2022-08-11T14:50:10.072Z,34.00
2022-08-11T14:52:44.414Z,34.50
2022-08-11T14:55:31.985Z,34.60
2022-08-11T14:58:01.803Z,34.40
2022-08-11T15:00:32.169Z,34.10
2022-08-11T15:03:13.453Z,34.00
2022-08-11T15:05:56.603Z,34.10
2022-08-11T15:08:42.431Z,34.30
2022-08-11T15:11:33.360Z,34.30
2022-08-11T15:14:03.907Z,34.40
2022-08-11T15:16:51.781Z,34.30
2022-08-11T15:19:22.055Z,34.00
2022-08-11T15:22:19.357Z,34.00
2022-08-11T15:24:47.553Z,34.00
2022-08-11T15:27:38.816Z,33.80
2022-08-11T15:30:32.860Z,33.60
2022-08-11T15:33:23.284Z,33.70
2022-08-11T15:36:11.330Z,33.50
2022-08-11T15:38:45.068Z,33.60
2022-08-11T15:41:35.991Z,33.70
2022-08-11T15:44:51.292Z,33.60
2022-08-11T15:47:16.890Z,33.70
2022-08-11T15:50:10.759Z,33.70
2022-08-11T15:52:47.871Z,33.20
2022-08-11T15:55:17.496Z,32.80
2022-08-11T15:58:08.850Z,32.70
2022-08-11T16:01:03.973Z,33.00
2022-08-11T16:04:07.619Z,33.40
2022-08-11T16:06:47.678Z,33.90
2022-08-11T16:09:24.089Z,34.00
2022-08-11T16:11:54.025Z,34.00
2022-08-11T16:14:42.026Z,34.00
2022-08-11T16:17:13.124Z,33.80
2022-08-11T16:19:43.955Z,33.80
2022-08-11T16:22:16.274Z,33.40
2022-08-11T16:27:01.419Z,32.90
2022-08-11T16:27:39.726Z,32.90
2022-08-11T16:30:09.387Z,32.80
2022-08-11T16:32:43.116Z,32.80
2022-08-11T16:35:32.165Z,32.70
2022-08-11T16:38:21.402Z,32.60
2022-08-11T16:40:52.915Z,32.30
2022-08-11T16:43:41.599Z,32.00
2022-08-11T16:46:29.567Z,31.90
2022-08-11T16:49:00.069Z,32.10
2022-08-11T16:51:28.444Z,32.00
2022-08-11T16:54:05.884Z,32.10
2022-08-11T16:56:38.621Z,32.20
2022-08-11T16:59:16.329Z,32.10
2022-08-11T17:01:53.480Z,32.10
2022-08-11T17:04:49.987Z,32.20
2022-08-11T17:07:41.691Z,32.20
2022-08-11T17:10:51.640Z,32.10
2022-08-11T17:13:27.163Z,32.10
2022-08-11T17:16:12.765Z,32.10
2022-08-11T17:18:52.622Z,32.00
2022-08-11T17:21:26.310Z,32.10
2022-08-11T17:23:57.249Z,32.20
2022-08-11T17:26:52.576Z,32.10
2022-08-11T17:29:24.721Z,32.00
2022-08-11T17:32:11.837Z,31.90
2022-08-11T17:34:58.681Z,31.80
2022-08-11T17:37:28.248Z,31.80
2022-08-11T17:39:57.835Z,31.80
2022-08-11T17:42:48.029Z,31.70
2022-08-11T17:45:47.184Z,31.60
2022-08-11T17:48:29.387Z,31.50
2022-08-11T17:51:00.535Z,31.30
2022-08-11T17:54:16.919Z,31.30
2022-08-11T17:56:56.680Z,31.20
2022-08-11T17:59:48.976Z,31.10
2022-08-11T18:02:37.376Z,31.10
2022-08-11T18:05:12.320Z,31.00
2022-08-11T18:08:01.056Z,30.80
2022-08-11T18:10:48.405Z,30.70
2022-08-11T18:13:36.017Z,30.60
2022-08-11T18:16:23.427Z,30.50
2022-08-11T18:19:09.634Z,30.30
2022-08-11T18:22:08.253Z,30.20
2022-08-11T18:25:06.235Z,30.10
2022-08-11T18:27:54.357Z,29.90
2022-08-11T18:30:40.701Z,29.70
2022-08-11T18:34:03.435Z,29.60
2022-08-11T18:36:40.411Z,29.30
2022-08-11T18:39:30.355Z,29.20
2022-08-11T18:42:29.826Z,29.00
2022-08-11T18:45:18.972Z,28.90
2022-08-11T18:48:07.444Z,28.80
2022-08-11T18:51:29.834Z,28.60
2022-08-11T18:54:09.926Z,28.50
2022-08-11T18:56:55.764Z,28.30
2022-08-11T18:59:45.799Z,28.10
2022-08-11T19:02:48.947Z,28.00
2022-08-11T19:06:33.741Z,27.90
2022-08-11T19:08:47.680Z,27.80
2022-08-11T19:11:34.123Z,27.70
2022-08-11T19:14:22.243Z,27.60
2022-08-11T19:17:09.844Z,27.50
2022-08-11T19:19:57.684Z,27.50
2022-08-11T19:22:45.807Z,27.30
2022-08-11T19:25:33.753Z,27.30
2022-08-11T19:28:22.888Z,27.20
2022-08-11T19:31:09.990Z,27.00
2022-08-11T19:34:02.756Z,26.90
2022-08-11T19:36:58.256Z,26.80
2022-08-11T19:39:46.278Z,26.70
2022-08-11T19:42:34.422Z,26.60
2022-08-11T19:45:21.314Z,26.50
2022-08-11T19:48:30.574Z,26.40
2022-08-11T19:51:13.597Z,26.30
2022-08-11T19:54:00.543Z,26.20
2022-08-11T19:56:47.052Z,26.10
2022-08-11T19:59:34.959Z,26.00
2022-08-11T20:02:20.453Z,25.90
2022-08-11T20:05:06.346Z,25.90
2022-08-11T20:07:53.606Z,25.90
2022-08-11T20:10:40.285Z,25.80
2022-08-11T20:13:27.518Z,25.70
2022-08-11T20:16:15.676Z,25.70
2022-08-11T20:19:04.415Z,25.70
2022-08-11T20:21:50.660Z,25.60
2022-08-11T20:24:37.667Z,25.50
2022-08-11T20:27:25.495Z,25.50
2022-08-11T20:30:12.250Z,25.40
2022-08-11T20:33:01.133Z,25.30
2022-08-11T20:35:48.109Z,25.20
2022-08-11T20:38:34.997Z,25.30
2022-08-11T20:41:21.990Z,25.20
2022-08-11T20:44:09.793Z,25.10
2022-08-11T20:46:57.244Z,25.10
2022-08-11T20:52:53.377Z,25.10
2022-08-11T20:55:45.571Z,25.00
2022-08-11T20:59:02.401Z,24.90
2022-08-11T21:01:41.233Z,24.90
2022-08-11T21:04:27.249Z,24.90
2022-08-11T21:07:28.616Z,24.80
2022-08-11T21:10:23.411Z,24.80
2022-08-11T21:13:24.219Z,24.70
2022-08-11T21:16:25.067Z,24.70
2022-08-11T21:19:18.372Z,24.60
2022-08-11T21:22:06.305Z,24.60
2022-08-11T21:24:55.133Z,24.60
2022-08-11T21:27:42.444Z,24.60
2022-08-11T21:30:29.605Z,24.60
2022-08-11T21:33:16.074Z,24.50
2022-08-11T21:36:02.066Z,24.50
2022-08-11T21:38:49.318Z,24.50
2022-08-11T21:41:37.964Z,24.40
2022-08-11T21:44:26.310Z,24.40
2022-08-11T21:47:13.292Z,24.30
2022-08-11T21:50:00.469Z,24.30
2022-08-11T21:52:46.910Z,24.40
2022-08-11T21:55:33.345Z,24.30
2022-08-11T21:58:21.088Z,24.30
2022-08-11T22:01:07.416Z,24.30
2022-08-11T22:03:53.628Z,24.20
2022-08-11T22:06:39.766Z,24.20
2022-08-11T22:09:25.648Z,24.10
2022-08-11T22:12:30.211Z,24.10
2022-08-11T22:15:18.854Z,24.10
2022-08-11T22:18:04.430Z,24.00
2022-08-11T22:20:51.868Z,24.00
2022-08-11T22:23:38.233Z,24.00
2022-08-11T22:26:25.331Z,23.90
2022-08-11T22:29:11.415Z,23.90
2022-08-11T22:32:00.800Z,23.80
2022-08-11T22:34:53.246Z,23.80
2022-08-11T22:37:40.724Z,23.80
2022-08-11T22:40:28.506Z,23.80
2022-08-11T22:43:13.891Z,23.70
2022-08-11T22:46:00.119Z,23.60
2022-08-11T22:48:49.308Z,23.60
2022-08-11T22:51:38.125Z,23.60
2022-08-11T22:54:24.570Z,23.50
2022-08-11T22:57:10.808Z,23.50
2022-08-11T22:59:57.713Z,23.50
2022-08-11T23:02:46.658Z,23.50
2022-08-11T23:05:34.727Z,23.50
2022-08-11T23:08:21.150Z,23.40
2022-08-11T23:11:08.252Z,23.40
2022-08-11T23:13:54.423Z,23.30
2022-08-11T23:16:40.435Z,23.30
2022-08-11T23:20:03.784Z,23.20
2022-08-11T23:22:36.992Z,23.20
2022-08-11T23:25:36.533Z,23.10
2022-08-11T23:28:24.536Z,23.10
2022-08-11T23:31:12.935Z,23.10
2022-08-11T23:34:00.710Z,23.00
2022-08-11T23:36:47.799Z,23.00
2022-08-11T23:39:35.206Z,22.90
2022-08-11T23:42:21.075Z,22.90
2022-08-11T23:45:09.561Z,22.90
2022-08-11T23:47:57.854Z,22.80
2022-08-11T23:50:43.710Z,22.80
2022-08-11T23:53:31.226Z,22.80
2022-08-11T23:56:21.754Z,22.70
2022-08-11T23:59:08.992Z,22.70
